sensor_id;sensor_type;location;lat;lon;timestamp;P1;durP1;ratioP1;P2;durP2;ratioP2
23179;SDS011;11758;45.756;11.432;2023-03-24T00:01:18;70.95;;;43.63;;
23179;SDS011;11758;45.756;11.432;2023-03-24T00:03:44;72.55;;;43.08;;
23179;SDS011;11758;45.756;11.432;2023-03-24T00:06:12;75.60;;;42.80;;
23179;SDS011;11758;45.756;11.432;2023-03-24T00:08:39;76.03;;;44.88;;
23179;SDS011;11758;45.756;11.432;2023-03-24T00:11:09;74.97;;;44.10;;
23179;SDS011;11758;45.756;11.432;2023-03-24T00:13:35;75.97;;;43.75;;
23179;SDS011;11758;45.756;11.432;2023-03-24T00:16:06;76.55;;;43.78;;
23179;SDS011;11758;45.756;11.432;2023-03-24T00:18:35;73.85;;;44.97;;
23179;SDS011;11758;45.756;11.432;2023-03-24T00:21:11;79.28;;;45.20;;
23179;SDS011;11758;45.756;11.432;2023-03-24T00:23:40;79.22;;;45.58;;
23179;SDS011;11758;45.756;11.432;2023-03-24T00:26:09;79.40;;;46.83;;
23179;SDS011;11758;45.756;11.432;2023-03-24T00:28:40;84.43;;;47.13;;
23179;SDS011;11758;45.756;11.432;2023-03-24T00:31:07;75.03;;;46.08;;
23179;SDS011;11758;45.756;11.432;2023-03-24T00:33:33;75.90;;;44.70;;
23179;SDS011;11758;45.756;11.432;2023-03-24T00:36:04;75.45;;;44.70;;
23179;SDS011;11758;45.756;11.432;2023-03-24T00:38:31;78.93;;;45.28;;
23179;SDS011;11758;45.756;11.432;2023-03-24T00:41:10;77.55;;;44.00;;
23179;SDS011;11758;45.756;11.432;2023-03-24T00:43:36;78.47;;;45.03;;
23179;SDS011;11758;45.756;11.432;2023-03-24T00:46:05;82.18;;;44.90;;
23179;SDS011;11758;45.756;11.432;2023-03-24T00:48:32;76.97;;;44.63;;
23179;SDS011;11758;45.756;11.432;2023-03-24T00:51:00;79.57;;;45.30;;
23179;SDS011;11758;45.756;11.432;2023-03-24T00:53:29;78.53;;;45.92;;
23179;SDS011;11758;45.756;11.432;2023-03-24T00:55:57;81.25;;;46.70;;
23179;SDS011;11758;45.756;11.432;2023-03-24T00:58:24;84.65;;;46.65;;
23179;SDS011;11758;45.756;11.432;2023-03-24T01:00:54;82.53;;;46.78;;
23179;SDS011;11758;45.756;11.432;2023-03-24T01:03:21;81.57;;;46.13;;
23179;SDS011;11758;45.756;11.432;2023-03-24T01:05:51;82.47;;;46.83;;
23179;SDS011;11758;45.756;11.432;2023-03-24T01:08:18;81.50;;;47.33;;
23179;SDS011;11758;45.756;11.432;2023-03-24T01:10:45;85.15;;;48.20;;
23179;SDS011;11758;45.756;11.432;2023-03-24T01:13:15;79.13;;;46.75;;
23179;SDS011;11758;45.756;11.432;2023-03-24T01:15:42;84.43;;;48.10;;
23179;SDS011;11758;45.756;11.432;2023-03-24T01:18:09;80.85;;;46.28;;
23179;SDS011;11758;45.756;11.432;2023-03-24T01:20:37;87.93;;;47.95;;
23179;SDS011;11758;45.756;11.432;2023-03-24T01:23:06;85.63;;;47.20;;
23179;SDS011;11758;45.756;11.432;2023-03-24T01:25:33;81.80;;;45.17;;
23179;SDS011;11758;45.756;11.432;2023-03-24T01:28:00;77.68;;;46.50;;
23179;SDS011;11758;45.756;11.432;2023-03-24T01:30:27;79.80;;;46.95;;
23179;SDS011;11758;45.756;11.432;2023-03-24T01:32:54;78.80;;;47.30;;
23179;SDS011;11758;45.756;11.432;2023-03-24T01:35:21;81.93;;;45.72;;
23179;SDS011;11758;45.756;11.432;2023-03-24T01:37:47;75.22;;;44.90;;
23179;SDS011;11758;45.756;11.432;2023-03-24T01:40:23;83.18;;;47.72;;
23179;SDS011;11758;45.756;11.432;2023-03-24T01:42:49;80.47;;;45.67;;
23179;SDS011;11758;45.756;11.432;2023-03-24T01:48:00;80.00;;;42.58;;
23179;SDS011;11758;45.756;11.432;2023-03-24T01:50:27;83.40;;;44.80;;
23179;SDS011;11758;45.756;11.432;2023-03-24T01:52:54;80.20;;;44.78;;
23179;SDS011;11758;45.756;11.432;2023-03-24T01:55:20;79.20;;;42.80;;
23179;SDS011;11758;45.756;11.432;2023-03-24T01:57:47;76.30;;;42.70;;
23179;SDS011;11758;45.756;11.432;2023-03-24T02:00:15;72.30;;;42.72;;
23179;SDS011;11758;45.756;11.432;2023-03-24T02:02:46;76.35;;;42.05;;
23179;SDS011;11758;45.756;11.432;2023-03-24T02:05:18;79.80;;;43.38;;
23179;SDS011;11758;45.756;11.432;2023-03-24T02:07:53;79.20;;;44.13;;
23179;SDS011;11758;45.756;11.432;2023-03-24T02:10:21;76.43;;;43.95;;
23179;SDS011;11758;45.756;11.432;2023-03-24T02:12:49;77.22;;;42.88;;
23179;SDS011;11758;45.756;11.432;2023-03-24T02:15:17;73.00;;;42.20;;
23179;SDS011;11758;45.756;11.432;2023-03-24T02:20:33;74.38;;;42.85;;
23179;SDS011;11758;45.756;11.432;2023-03-24T02:25:57;77.40;;;43.53;;
23179;SDS011;11758;45.756;11.432;2023-03-24T02:44:25;78.20;;;42.97;;
23179;SDS011;11758;45.756;11.432;2023-03-24T02:46:55;78.22;;;44.13;;
23179;SDS011;11758;45.756;11.432;2023-03-24T02:49:30;71.07;;;40.13;;
23179;SDS011;11758;45.756;11.432;2023-03-24T02:54:28;73.18;;;42.20;;
23179;SDS011;11758;45.756;11.432;2023-03-24T02:57:11;75.05;;;42.10;;
23179;SDS011;11758;45.756;11.432;2023-03-24T03:02:06;74.25;;;40.72;;
23179;SDS011;11758;45.756;11.432;2023-03-24T03:04:45;77.82;;;41.55;;
23179;SDS011;11758;45.756;11.432;2023-03-24T03:07:14;84.40;;;43.92;;
23179;SDS011;11758;45.756;11.432;2023-03-24T03:09:55;78.55;;;43.08;;
23179;SDS011;11758;45.756;11.432;2023-03-24T03:12:22;79.25;;;42.35;;
23179;SDS011;11758;45.756;11.432;2023-03-24T03:14:50;81.97;;;44.17;;
23179;SDS011;11758;45.756;11.432;2023-03-24T03:17:18;81.20;;;44.05;;
23179;SDS011;11758;45.756;11.432;2023-03-24T03:19:46;81.18;;;44.63;;
23179;SDS011;11758;45.756;11.432;2023-03-24T03:22:59;77.80;;;44.40;;
23179;SDS011;11758;45.756;11.432;2023-03-24T03:25:00;84.50;;;44.42;;
23179;SDS011;11758;45.756;11.432;2023-03-24T03:27:29;81.80;;;45.42;;
23179;SDS011;11758;45.756;11.432;2023-03-24T03:30:04;83.03;;;45.05;;
23179;SDS011;11758;45.756;11.432;2023-03-24T03:32:32;82.72;;;46.00;;
23179;SDS011;11758;45.756;11.432;2023-03-24T03:35:07;84.43;;;48.35;;
23179;SDS011;11758;45.756;11.432;2023-03-24T03:37:40;79.60;;;44.58;;
23179;SDS011;11758;45.756;11.432;2023-03-24T03:40:13;89.13;;;46.00;;
23179;SDS011;11758;45.756;11.432;2023-03-24T03:42:40;83.20;;;47.20;;
23179;SDS011;11758;45.756;11.432;2023-03-24T03:45:07;89.57;;;47.95;;
23179;SDS011;11758;45.756;11.432;2023-03-24T03:47:34;88.60;;;48.63;;
23179;SDS011;11758;45.756;11.432;2023-03-24T03:50:00;85.65;;;46.40;;
23179;SDS011;11758;45.756;11.432;2023-03-24T03:52:27;85.20;;;48.33;;
23179;SDS011;11758;45.756;11.432;2023-03-24T03:54:54;88.18;;;47.60;;
23179;SDS011;11758;45.756;11.432;2023-03-24T03:57:21;84.60;;;46.22;;
23179;SDS011;11758;45.756;11.432;2023-03-24T03:59:48;85.85;;;45.67;;
23179;SDS011;11758;45.756;11.432;2023-03-24T04:02:21;91.63;;;48.17;;
23179;SDS011;11758;45.756;11.432;2023-03-24T04:04:57;85.60;;;46.92;;
23179;SDS011;11758;45.756;11.432;2023-03-24T04:12:46;82.72;;;46.67;;
23179;SDS011;11758;45.756;11.432;2023-03-24T04:20:36;88.40;;;46.80;;
23179;SDS011;11758;45.756;11.432;2023-03-24T04:28:31;88.35;;;49.75;;
23179;SDS011;11758;45.756;11.432;2023-03-24T04:33:40;89.97;;;48.60;;
23179;SDS011;11758;45.756;11.432;2023-03-24T04:36:27;86.93;;;48.95;;
23179;SDS011;11758;45.756;11.432;2023-03-24T04:39:06;89.22;;;49.42;;
23179;SDS011;11758;45.756;11.432;2023-03-24T04:41:33;92.68;;;49.40;;
23179;SDS011;11758;45.756;11.432;2023-03-24T04:44:02;92.60;;;48.38;;
23179;SDS011;11758;45.756;11.432;2023-03-24T04:46:31;90.63;;;48.92;;
23179;SDS011;11758;45.756;11.432;2023-03-24T04:48:57;95.97;;;48.00;;
23179;SDS011;11758;45.756;11.432;2023-03-24T04:51:24;88.05;;;46.42;;
23179;SDS011;11758;45.756;11.432;2023-03-24T04:53:52;88.00;;;48.72;;
23179;SDS011;11758;45.756;11.432;2023-03-24T04:58:55;90.18;;;48.20;;
23179;SDS011;11758;45.756;11.432;2023-03-24T05:01:24;94.70;;;49.42;;
23179;SDS011;11758;45.756;11.432;2023-03-24T05:03:54;88.40;;;46.75;;
23179;SDS011;11758;45.756;11.432;2023-03-24T05:06:21;93.72;;;47.28;;
23179;SDS011;11758;45.756;11.432;2023-03-24T05:08:47;86.35;;;48.50;;
23179;SDS011;11758;45.756;11.432;2023-03-24T05:11:13;94.40;;;50.95;;
23179;SDS011;11758;45.756;11.432;2023-03-24T05:13:40;90.18;;;48.05;;
23179;SDS011;11758;45.756;11.432;2023-03-24T05:16:06;82.45;;;45.78;;
23179;SDS011;11758;45.756;11.432;2023-03-24T05:18:32;89.35;;;46.92;;
23179;SDS011;11758;45.756;11.432;2023-03-24T05:20:58;93.07;;;47.42;;
23179;SDS011;11758;45.756;11.432;2023-03-24T05:23:25;85.05;;;46.10;;
23179;SDS011;11758;45.756;11.432;2023-03-24T05:26:00;90.63;;;49.28;;
23179;SDS011;11758;45.756;11.432;2023-03-24T05:28:26;95.47;;;48.58;;
23179;SDS011;11758;45.756;11.432;2023-03-24T05:30:52;89.25;;;48.40;;
23179;SDS011;11758;45.756;11.432;2023-03-24T05:33:18;86.57;;;47.60;;
23179;SDS011;11758;45.756;11.432;2023-03-24T05:35:45;87.32;;;47.80;;
23179;SDS011;11758;45.756;11.432;2023-03-24T05:38:11;91.97;;;48.58;;
23179;SDS011;11758;45.756;11.432;2023-03-24T05:40:37;93.40;;;48.25;;
23179;SDS011;11758;45.756;11.432;2023-03-24T05:43:03;88.43;;;46.47;;
23179;SDS011;11758;45.756;11.432;2023-03-24T05:45:32;87.07;;;46.33;;
23179;SDS011;11758;45.756;11.432;2023-03-24T05:47:58;84.50;;;46.83;;
23179;SDS011;11758;45.756;11.432;2023-03-24T05:50:24;85.00;;;47.45;;
23179;SDS011;11758;45.756;11.432;2023-03-24T05:52:50;81.55;;;46.47;;
23179;SDS011;11758;45.756;11.432;2023-03-24T05:55:17;69.88;;;41.00;;
23179;SDS011;11758;45.756;11.432;2023-03-24T05:57:43;65.50;;;37.28;;
23179;SDS011;11758;45.756;11.432;2023-03-24T06:00:10;70.32;;;39.13;;
23179;SDS011;11758;45.756;11.432;2023-03-24T06:02:41;71.80;;;41.10;;
23179;SDS011;11758;45.756;11.432;2023-03-24T06:05:10;74.80;;;38.95;;
23179;SDS011;11758;45.756;11.432;2023-03-24T06:07:36;71.60;;;39.03;;
23179;SDS011;11758;45.756;11.432;2023-03-24T06:10:03;79.38;;;42.75;;
23179;SDS011;11758;45.756;11.432;2023-03-24T06:12:32;77.43;;;39.95;;
23179;SDS011;11758;45.756;11.432;2023-03-24T06:14:58;73.32;;;41.28;;
23179;SDS011;11758;45.756;11.432;2023-03-24T06:17:25;81.93;;;43.85;;
23179;SDS011;11758;45.756;11.432;2023-03-24T06:19:53;78.07;;;44.08;;
23179;SDS011;11758;45.756;11.432;2023-03-24T06:22:27;91.10;;;47.90;;
23179;SDS011;11758;45.756;11.432;2023-03-24T06:24:53;91.75;;;47.95;;
23179;SDS011;11758;45.756;11.432;2023-03-24T06:27:26;87.15;;;45.17;;
23179;SDS011;11758;45.756;11.432;2023-03-24T06:29:57;88.00;;;47.35;;
23179;SDS011;11758;45.756;11.432;2023-03-24T06:32:24;83.45;;;45.65;;
23179;SDS011;11758;45.756;11.432;2023-03-24T06:34:50;87.30;;;47.08;;
23179;SDS011;11758;45.756;11.432;2023-03-24T06:37:16;87.38;;;48.40;;
23179;SDS011;11758;45.756;11.432;2023-03-24T06:39:44;89.28;;;47.80;;
23179;SDS011;11758;45.756;11.432;2023-03-24T06:42:10;89.72;;;48.40;;
23179;SDS011;11758;45.756;11.432;2023-03-24T06:44:36;94.57;;;47.60;;
23179;SDS011;11758;45.756;11.432;2023-03-24T06:47:03;91.88;;;46.47;;
23179;SDS011;11758;45.756;11.432;2023-03-24T06:49:29;94.00;;;49.38;;
23179;SDS011;11758;45.756;11.432;2023-03-24T06:51:56;90.88;;;49.40;;
23179;SDS011;11758;45.756;11.432;2023-03-24T06:54:22;88.93;;;48.92;;
23179;SDS011;11758;45.756;11.432;2023-03-24T06:56:48;87.07;;;48.78;;
23179;SDS011;11758;45.756;11.432;2023-03-24T06:59:14;89.28;;;48.85;;
23179;SDS011;11758;45.756;11.432;2023-03-24T07:01:41;99.10;;;50.30;;
23179;SDS011;11758;45.756;11.432;2023-03-24T07:04:08;88.07;;;49.15;;
23179;SDS011;11758;45.756;11.432;2023-03-24T07:06:34;92.07;;;48.78;;
23179;SDS011;11758;45.756;11.432;2023-03-24T07:09:00;93.78;;;47.17;;
23179;SDS011;11758;45.756;11.432;2023-03-24T07:11:27;93.47;;;49.78;;
23179;SDS011;11758;45.756;11.432;2023-03-24T07:13:53;93.20;;;51.22;;
23179;SDS011;11758;45.756;11.432;2023-03-24T07:16:19;97.10;;;51.78;;
23179;SDS011;11758;45.756;11.432;2023-03-24T07:18:45;94.90;;;51.88;;
23179;SDS011;11758;45.756;11.432;2023-03-24T07:21:12;96.40;;;49.58;;
23179;SDS011;11758;45.756;11.432;2023-03-24T07:23:38;94.97;;;50.10;;
23179;SDS011;11758;45.756;11.432;2023-03-24T07:26:04;97.95;;;50.95;;
23179;SDS011;11758;45.756;11.432;2023-03-24T07:28:31;85.00;;;48.08;;
23179;SDS011;11758;45.756;11.432;2023-03-24T07:31:00;93.88;;;49.42;;
23179;SDS011;11758;45.756;11.432;2023-03-24T07:33:26;89.53;;;49.85;;
23179;SDS011;11758;45.756;11.432;2023-03-24T07:35:53;88.35;;;50.20;;
23179;SDS011;11758;45.756;11.432;2023-03-24T07:38:20;91.20;;;48.83;;
23179;SDS011;11758;45.756;11.432;2023-03-24T07:40:46;94.10;;;49.10;;
23179;SDS011;11758;45.756;11.432;2023-03-24T07:43:13;80.32;;;44.42;;
23179;SDS011;11758;45.756;11.432;2023-03-24T07:45:39;79.82;;;44.67;;
23179;SDS011;11758;45.756;11.432;2023-03-24T07:48:05;81.20;;;45.40;;
23179;SDS011;11758;45.756;11.432;2023-03-24T07:50:31;86.88;;;45.25;;
23179;SDS011;11758;45.756;11.432;2023-03-24T07:52:58;88.13;;;44.83;;
23179;SDS011;11758;45.756;11.432;2023-03-24T07:55:24;77.00;;;43.78;;
23179;SDS011;11758;45.756;11.432;2023-03-24T07:57:51;81.97;;;44.45;;
23179;SDS011;11758;45.756;11.432;2023-03-24T08:00:17;75.43;;;42.72;;
23179;SDS011;11758;45.756;11.432;2023-03-24T08:02:51;70.22;;;41.88;;
23179;SDS011;11758;45.756;11.432;2023-03-24T08:05:18;77.72;;;43.70;;
23179;SDS011;11758;45.756;11.432;2023-03-24T08:07:46;85.22;;;44.72;;
23179;SDS011;11758;45.756;11.432;2023-03-24T08:10:17;82.47;;;44.75;;
23179;SDS011;11758;45.756;11.432;2023-03-24T08:12:44;80.10;;;42.80;;
23179;SDS011;11758;45.756;11.432;2023-03-24T08:15:11;85.53;;;45.72;;
23179;SDS011;11758;45.756;11.432;2023-03-24T08:17:37;89.28;;;47.70;;
23179;SDS011;11758;45.756;11.432;2023-03-24T08:20:03;79.22;;;45.63;;
23179;SDS011;11758;45.756;11.432;2023-03-24T08:22:51;78.43;;;45.42;;
23179;SDS011;11758;45.756;11.432;2023-03-24T08:25:18;85.20;;;46.20;;
23179;SDS011;11758;45.756;11.432;2023-03-24T08:27:45;81.57;;;46.92;;
23179;SDS011;11758;45.756;11.432;2023-03-24T08:30:15;91.38;;;49.05;;
23179;SDS011;11758;45.756;11.432;2023-03-24T08:32:42;91.20;;;49.80;;
23179;SDS011;11758;45.756;11.432;2023-03-24T08:35:10;87.45;;;49.45;;
23179;SDS011;11758;45.756;11.432;2023-03-24T08:37:38;81.07;;;49.00;;
23179;SDS011;11758;45.756;11.432;2023-03-24T08:40:06;90.72;;;52.25;;
23179;SDS011;11758;45.756;11.432;2023-03-24T08:42:32;91.40;;;50.33;;
23179;SDS011;11758;45.756;11.432;2023-03-24T08:44:58;89.32;;;50.42;;
23179;SDS011;11758;45.756;11.432;2023-03-24T08:47:25;103.55;;;52.63;;
23179;SDS011;11758;45.756;11.432;2023-03-24T08:49:53;103.35;;;51.53;;
23179;SDS011;11758;45.756;11.432;2023-03-24T08:52:21;93.50;;;51.47;;
23179;SDS011;11758;45.756;11.432;2023-03-24T08:54:47;92.22;;;50.55;;
23179;SDS011;11758;45.756;11.432;2023-03-24T08:57:14;90.57;;;50.25;;
23179;SDS011;11758;45.756;11.432;2023-03-24T08:59:42;88.38;;;50.35;;
23179;SDS011;11758;45.756;11.432;2023-03-24T09:02:10;89.78;;;49.40;;
23179;SDS011;11758;45.756;11.432;2023-03-24T09:04:39;101.97;;;51.00;;
23179;SDS011;11758;45.756;11.432;2023-03-24T09:07:06;91.93;;;50.47;;
23179;SDS011;11758;45.756;11.432;2023-03-24T09:09:34;96.32;;;50.13;;
23179;SDS011;11758;45.756;11.432;2023-03-24T09:12:00;90.75;;;48.00;;
23179;SDS011;11758;45.756;11.432;2023-03-24T09:14:26;93.30;;;50.50;;
23179;SDS011;11758;45.756;11.432;2023-03-24T09:16:52;99.97;;;49.47;;
23179;SDS011;11758;45.756;11.432;2023-03-24T09:19:18;107.38;;;51.65;;
23179;SDS011;11758;45.756;11.432;2023-03-24T09:21:45;90.05;;;49.40;;
23179;SDS011;11758;45.756;11.432;2023-03-24T09:24:11;94.25;;;50.72;;
23179;SDS011;11758;45.756;11.432;2023-03-24T09:26:37;93.03;;;49.95;;
23179;SDS011;11758;45.756;11.432;2023-03-24T09:29:04;97.35;;;49.88;;
23179;SDS011;11758;45.756;11.432;2023-03-24T09:31:30;116.25;;;52.92;;
23179;SDS011;11758;45.756;11.432;2023-03-24T09:33:56;89.07;;;51.35;;
23179;SDS011;11758;45.756;11.432;2023-03-24T09:36:22;97.85;;;51.67;;
23179;SDS011;11758;45.756;11.432;2023-03-24T09:38:48;93.43;;;48.95;;
23179;SDS011;11758;45.756;11.432;2023-03-24T09:41:25;98.75;;;49.92;;
23179;SDS011;11758;45.756;11.432;2023-03-24T09:46:46;91.85;;;46.15;;
23179;SDS011;11758;45.756;11.432;2023-03-24T09:49:20;88.18;;;48.17;;
23179;SDS011;11758;45.756;11.432;2023-03-24T09:51:48;82.45;;;45.63;;
23179;SDS011;11758;45.756;11.432;2023-03-24T09:54:19;82.80;;;44.08;;
23179;SDS011;11758;45.756;11.432;2023-03-24T09:56:47;70.65;;;42.97;;
23179;SDS011;11758;45.756;11.432;2023-03-24T10:01:39;67.43;;;39.55;;
23179;SDS011;11758;45.756;11.432;2023-03-24T10:04:09;57.13;;;34.83;;
23179;SDS011;11758;45.756;11.432;2023-03-24T10:06:38;70.47;;;39.13;;
23179;SDS011;11758;45.756;11.432;2023-03-24T10:11:50;61.35;;;36.40;;
23179;SDS011;11758;45.756;11.432;2023-03-24T10:14:33;53.10;;;32.70;;
23179;SDS011;11758;45.756;11.432;2023-03-24T10:17:08;57.15;;;35.00;;
23179;SDS011;11758;45.756;11.432;2023-03-24T10:22:24;63.17;;;35.25;;
23179;SDS011;11758;45.756;11.432;2023-03-24T10:27:21;63.15;;;36.15;;
23179;SDS011;11758;45.756;11.432;2023-03-24T10:29:51;58.33;;;36.03;;
23179;SDS011;11758;45.756;11.432;2023-03-24T10:32:20;63.03;;;35.85;;
23179;SDS011;11758;45.756;11.432;2023-03-24T10:34:48;61.53;;;35.38;;
23179;SDS011;11758;45.756;11.432;2023-03-24T10:37:16;65.20;;;35.08;;
23179;SDS011;11758;45.756;11.432;2023-03-24T10:39:42;62.47;;;36.63;;
23179;SDS011;11758;45.756;11.432;2023-03-24T10:42:11;57.67;;;33.33;;
23179;SDS011;11758;45.756;11.432;2023-03-24T10:44:39;60.90;;;35.83;;
23179;SDS011;11758;45.756;11.432;2023-03-24T10:47:05;59.15;;;34.25;;
23179;SDS011;11758;45.756;11.432;2023-03-24T10:49:33;57.10;;;35.35;;
23179;SDS011;11758;45.756;11.432;2023-03-24T10:52:00;56.13;;;35.25;;
23179;SDS011;11758;45.756;11.432;2023-03-24T10:54:28;53.03;;;33.35;;
23179;SDS011;11758;45.756;11.432;2023-03-24T10:59:34;47.03;;;31.20;;
23179;SDS011;11758;45.756;11.432;2023-03-24T11:02:08;51.67;;;30.92;;
23179;SDS011;11758;45.756;11.432;2023-03-24T11:04:40;48.33;;;29.58;;
23179;SDS011;11758;45.756;11.432;2023-03-24T11:07:15;48.45;;;30.05;;
23179;SDS011;11758;45.756;11.432;2023-03-24T11:10:12;47.88;;;29.48;;
23179;SDS011;11758;45.756;11.432;2023-03-24T11:12:32;46.50;;;28.70;;
23179;SDS011;11758;45.756;11.432;2023-03-24T11:15:32;45.97;;;28.95;;
23179;SDS011;11758;45.756;11.432;2023-03-24T11:20:33;47.70;;;30.38;;
23179;SDS011;11758;45.756;11.432;2023-03-24T11:23:01;53.72;;;33.38;;
23179;SDS011;11758;45.756;11.432;2023-03-24T11:25:32;50.63;;;32.60;;
23179;SDS011;11758;45.756;11.432;2023-03-24T11:28:23;47.72;;;30.92;;
23179;SDS011;11758;45.756;11.432;2023-03-24T11:30:51;45.55;;;31.15;;
23179;SDS011;11758;45.756;11.432;2023-03-24T11:33:19;49.50;;;31.38;;
23179;SDS011;11758;45.756;11.432;2023-03-24T11:35:47;54.17;;;30.48;;
23179;SDS011;11758;45.756;11.432;2023-03-24T11:38:15;48.03;;;29.70;;
23179;SDS011;11758;45.756;11.432;2023-03-24T11:40:52;48.72;;;31.67;;
23179;SDS011;11758;45.756;11.432;2023-03-24T11:43:19;48.60;;;31.08;;
23179;SDS011;11758;45.756;11.432;2023-03-24T11:45:46;50.78;;;31.13;;
23179;SDS011;11758;45.756;11.432;2023-03-24T11:50:49;43.78;;;26.23;;
23179;SDS011;11758;45.756;11.432;2023-03-24T11:53:19;46.35;;;28.50;;
23179;SDS011;11758;45.756;11.432;2023-03-24T12:03:57;42.50;;;27.58;;
23179;SDS011;11758;45.756;11.432;2023-03-24T12:06:31;57.45;;;28.77;;
23179;SDS011;11758;45.756;11.432;2023-03-24T12:17:21;71.18;;;32.63;;
23179;SDS011;11758;45.756;11.432;2023-03-24T12:28:04;55.10;;;34.85;;
23179;SDS011;11758;45.756;11.432;2023-03-24T12:30:49;57.42;;;36.28;;
23179;SDS011;11758;45.756;11.432;2023-03-24T12:36:05;59.65;;;36.13;;
23179;SDS011;11758;45.756;11.432;2023-03-24T12:46:54;66.00;;;37.33;;
23179;SDS011;11758;45.756;11.432;2023-03-24T12:52:11;62.70;;;36.80;;
23179;SDS011;11758;45.756;11.432;2023-03-24T12:57:13;55.40;;;37.00;;
23179;SDS011;11758;45.756;11.432;2023-03-24T12:59:50;57.88;;;36.70;;
23179;SDS011;11758;45.756;11.432;2023-03-24T13:02:34;67.15;;;37.90;;
23179;SDS011;11758;45.756;11.432;2023-03-24T13:05:05;55.88;;;36.05;;
23179;SDS011;11758;45.756;11.432;2023-03-24T13:07:35;59.67;;;37.50;;
23179;SDS011;11758;45.756;11.432;2023-03-24T13:12:37;58.58;;;35.40;;
23179;SDS011;11758;45.756;11.432;2023-03-24T13:17:43;54.80;;;35.85;;
23179;SDS011;11758;45.756;11.432;2023-03-24T13:20:13;60.55;;;36.47;;
23179;SDS011;11758;45.756;11.432;2023-03-24T13:22:42;56.80;;;35.83;;
23179;SDS011;11758;45.756;11.432;2023-03-24T13:28:10;56.63;;;35.22;;
23179;SDS011;11758;45.756;11.432;2023-03-24T13:30:39;53.97;;;34.97;;
23179;SDS011;11758;45.756;11.432;2023-03-24T13:33:09;56.72;;;35.17;;
23179;SDS011;11758;45.756;11.432;2023-03-24T13:38:14;56.75;;;36.25;;
23179;SDS011;11758;45.756;11.432;2023-03-24T13:40:42;60.58;;;34.33;;
23179;SDS011;11758;45.756;11.432;2023-03-24T13:43:12;50.10;;;32.55;;
23179;SDS011;11758;45.756;11.432;2023-03-24T13:45:40;56.97;;;34.53;;
23179;SDS011;11758;45.756;11.432;2023-03-24T13:50:37;54.75;;;33.90;;
23179;SDS011;11758;45.756;11.432;2023-03-24T13:53:05;56.97;;;32.92;;
23179;SDS011;11758;45.756;11.432;2023-03-24T13:55:36;59.33;;;35.42;;
23179;SDS011;11758;45.756;11.432;2023-03-24T13:58:19;54.45;;;35.30;;
23179;SDS011;11758;45.756;11.432;2023-03-24T14:03:42;55.28;;;32.42;;
23179;SDS011;11758;45.756;11.432;2023-03-24T14:06:09;56.95;;;32.17;;
23179;SDS011;11758;45.756;11.432;2023-03-24T14:08:40;52.25;;;32.20;;
23179;SDS011;11758;45.756;11.432;2023-03-24T14:13:53;56.05;;;32.60;;
23179;SDS011;11758;45.756;11.432;2023-03-24T14:16:33;51.17;;;32.75;;
23179;SDS011;11758;45.756;11.432;2023-03-24T14:19:07;52.05;;;32.03;;
23179;SDS011;11758;45.756;11.432;2023-03-24T14:21:33;48.70;;;31.90;;
23179;SDS011;11758;45.756;11.432;2023-03-24T14:24:01;48.95;;;31.27;;
23179;SDS011;11758;45.756;11.432;2023-03-24T14:26:29;50.30;;;30.90;;
23179;SDS011;11758;45.756;11.432;2023-03-24T14:29:02;43.60;;;30.33;;
23179;SDS011;11758;45.756;11.432;2023-03-24T14:31:32;48.80;;;31.25;;
23179;SDS011;11758;45.756;11.432;2023-03-24T14:34:07;54.35;;;30.85;;
23179;SDS011;11758;45.756;11.432;2023-03-24T14:36:38;41.67;;;28.40;;
23179;SDS011;11758;45.756;11.432;2023-03-24T14:39:23;50.85;;;30.05;;
23179;SDS011;11758;45.756;11.432;2023-03-24T14:41:52;48.08;;;30.48;;
23179;SDS011;11758;45.756;11.432;2023-03-24T14:47:03;51.50;;;32.55;;
23179;SDS011;11758;45.756;11.432;2023-03-24T14:49:29;49.70;;;31.02;;
23179;SDS011;11758;45.756;11.432;2023-03-24T14:56:55;44.10;;;30.10;;
23179;SDS011;11758;45.756;11.432;2023-03-24T14:59:44;42.30;;;28.33;;
23179;SDS011;11758;45.756;11.432;2023-03-24T15:02:30;48.00;;;30.25;;
23179;SDS011;11758;45.756;11.432;2023-03-24T15:07:40;42.33;;;28.67;;
23179;SDS011;11758;45.756;11.432;2023-03-24T15:10:12;44.22;;;30.48;;
23179;SDS011;11758;45.756;11.432;2023-03-24T15:12:45;48.92;;;29.77;;
23179;SDS011;11758;45.756;11.432;2023-03-24T15:15:21;47.22;;;30.00;;
23179;SDS011;11758;45.756;11.432;2023-03-24T15:17:48;43.63;;;28.25;;
23179;SDS011;11758;45.756;11.432;2023-03-24T15:20:28;49.13;;;30.08;;
23179;SDS011;11758;45.756;11.432;2023-03-24T15:23:06;40.38;;;28.52;;
23179;SDS011;11758;45.756;11.432;2023-03-24T15:25:34;47.58;;;28.83;;
23179;SDS011;11758;45.756;11.432;2023-03-24T15:28:00;40.92;;;28.98;;
23179;SDS011;11758;45.756;11.432;2023-03-24T15:30:27;43.95;;;28.33;;
23179;SDS011;11758;45.756;11.432;2023-03-24T15:32:59;50.25;;;29.67;;
23179;SDS011;11758;45.756;11.432;2023-03-24T15:35:26;41.25;;;28.23;;
23179;SDS011;11758;45.756;11.432;2023-03-24T15:37:55;40.53;;;27.77;;
23179;SDS011;11758;45.756;11.432;2023-03-24T15:40:50;43.88;;;29.30;;
23179;SDS011;11758;45.756;11.432;2023-03-24T15:43:23;43.38;;;29.52;;
23179;SDS011;11758;45.756;11.432;2023-03-24T15:45:52;41.63;;;28.27;;
23179;SDS011;11758;45.756;11.432;2023-03-24T15:48:23;54.33;;;31.08;;
23179;SDS011;11758;45.756;11.432;2023-03-24T15:50:57;49.97;;;29.88;;
23179;SDS011;11758;45.756;11.432;2023-03-24T16:01:16;47.08;;;30.05;;
23179;SDS011;11758;45.756;11.432;2023-03-24T16:03:43;54.75;;;30.10;;
23179;SDS011;11758;45.756;11.432;2023-03-24T16:06:20;44.00;;;29.50;;
23179;SDS011;11758;45.756;11.432;2023-03-24T16:08:50;45.05;;;29.15;;
23179;SDS011;11758;45.756;11.432;2023-03-24T16:11:16;43.20;;;29.08;;
23179;SDS011;11758;45.756;11.432;2023-03-24T16:13:43;44.40;;;29.10;;
23179;SDS011;11758;45.756;11.432;2023-03-24T16:18:39;49.85;;;30.13;;
23179;SDS011;11758;45.756;11.432;2023-03-24T16:23:35;51.13;;;28.23;;
23179;SDS011;11758;45.756;11.432;2023-03-24T16:26:01;50.88;;;28.65;;
23179;SDS011;11758;45.756;11.432;2023-03-24T16:28:27;51.22;;;30.50;;
23179;SDS011;11758;45.756;11.432;2023-03-24T16:31:01;46.88;;;29.33;;
23179;SDS011;11758;45.756;11.432;2023-03-24T16:33:28;45.75;;;29.00;;
23179;SDS011;11758;45.756;11.432;2023-03-24T16:35:54;45.20;;;30.55;;
23179;SDS011;11758;45.756;11.432;2023-03-24T16:38:21;49.10;;;29.80;;
23179;SDS011;11758;45.756;11.432;2023-03-24T16:40:48;49.35;;;29.80;;
23179;SDS011;11758;45.756;11.432;2023-03-24T16:43:15;46.67;;;30.02;;
23179;SDS011;11758;45.756;11.432;2023-03-24T16:45:44;47.10;;;28.98;;
23179;SDS011;11758;45.756;11.432;2023-03-24T16:48:10;46.92;;;27.65;;
23179;SDS011;11758;45.756;11.432;2023-03-24T16:50:38;43.15;;;27.48;;
23179;SDS011;11758;45.756;11.432;2023-03-24T16:53:08;49.13;;;28.98;;
23179;SDS011;11758;45.756;11.432;2023-03-24T16:55:35;43.15;;;27.13;;